createdAt,value
2018-07-11T00:01:02.763Z,26.00
2018-07-11T00:03:42.555Z,23.10
2018-07-11T00:06:10.935Z,24.80
2018-07-11T00:08:39.514Z,25.63
2018-07-11T00:11:08.006Z,26.30
2018-07-11T00:13:36.230Z,26.27
2018-07-11T00:16:04.646Z,26.53
2018-07-11T00:18:32.818Z,26.03
2018-07-11T00:21:01.406Z,26.70
2018-07-11T00:23:29.610Z,25.53
2018-07-11T00:25:57.803Z,25.33
2018-07-11T00:28:25.981Z,26.57
2018-07-11T00:30:54.714Z,26.03
2018-07-11T00:33:23.077Z,26.13
2018-07-11T00:35:51.290Z,25.40
2018-07-11T00:38:19.770Z,24.87
2018-07-11T00:40:48.102Z,24.97
2018-07-11T00:43:16.345Z,24.83
2018-07-11T00:45:44.543Z,23.80
2018-07-11T00:48:12.740Z,24.73
2018-07-11T00:50:41.512Z,25.70
2018-07-11T00:53:09.734Z,25.17
2018-07-11T00:55:38.114Z,26.33
2018-07-11T00:58:12.590Z,25.40
2018-07-11T01:00:40.775Z,24.93
2018-07-11T01:03:09.171Z,26.03
2018-07-11T01:05:37.402Z,25.93
2018-07-11T01:08:05.595Z,24.70
2018-07-11T01:10:33.835Z,25.07
2018-07-11T01:13:02.039Z,25.27
2018-07-11T01:15:30.226Z,24.80
2018-07-11T01:18:04.786Z,24.70
2018-07-11T01:20:33.254Z,25.00
2018-07-11T01:23:01.433Z,24.93
2018-07-11T01:25:29.787Z,25.00
2018-07-11T01:27:57.983Z,24.47
2018-07-11T01:30:26.163Z,25.40
2018-07-11T01:32:54.363Z,25.30
2018-07-11T01:35:22.574Z,25.10
2018-07-11T01:37:50.786Z,25.23
2018-07-11T01:40:18.967Z,26.60
2018-07-11T01:42:47.139Z,25.77
2018-07-11T01:45:15.305Z,25.80
2018-07-11T01:47:43.498Z,25.23
2018-07-11T01:50:12.063Z,25.57
2018-07-11T01:52:54.274Z,24.97
2018-07-11T01:55:22.507Z,26.20
2018-07-11T01:57:52.746Z,26.57
2018-07-11T02:00:20.954Z,25.13
2018-07-11T02:02:49.163Z,24.33
2018-07-11T02:05:17.399Z,25.53
2018-07-11T02:07:45.615Z,24.97
2018-07-11T02:10:13.818Z,25.00
2018-07-11T02:12:42.831Z,24.20
2018-07-11T02:15:11.679Z,23.97
2018-07-11T02:17:40.882Z,24.40
2018-07-11T02:20:12.007Z,24.10
2018-07-11T02:22:40.546Z,25.20
2018-07-11T02:25:09.141Z,23.50
2018-07-11T02:27:37.511Z,24.00
2018-07-11T02:30:05.724Z,24.33
2018-07-11T02:32:34.670Z,25.07
2018-07-11T02:35:02.871Z,23.53
2018-07-11T02:37:31.083Z,24.47
2018-07-11T02:39:59.434Z,24.27
2018-07-11T02:42:27.650Z,24.77
2018-07-11T02:44:55.947Z,24.80
2018-07-11T02:47:29.327Z,23.83
2018-07-11T02:49:57.555Z,24.70
2018-07-11T02:52:25.751Z,24.60
2018-07-11T02:54:53.941Z,24.60
2018-07-11T02:57:22.135Z,24.10
2018-07-11T02:59:50.306Z,23.50
2018-07-11T03:02:18.514Z,26.27
2018-07-11T03:04:46.718Z,24.57
2018-07-11T03:07:14.934Z,24.73
2018-07-11T03:09:43.298Z,23.60
2018-07-11T03:12:11.502Z,24.30
2018-07-11T03:14:43.146Z,24.00
2018-07-11T03:17:11.394Z,25.63
2018-07-11T03:19:39.563Z,24.67
2018-07-11T03:22:07.759Z,24.93
2018-07-11T03:24:35.955Z,25.33
2018-07-11T03:27:04.166Z,26.23
2018-07-11T03:29:32.390Z,25.97
2018-07-11T03:32:00.575Z,25.97
2018-07-11T03:34:28.766Z,25.57
2018-07-11T03:36:56.951Z,24.80
2018-07-11T03:39:25.218Z,24.83
2018-07-11T03:41:53.417Z,24.07
2018-07-11T03:44:21.615Z,25.27
2018-07-11T03:46:49.798Z,24.03
2018-07-11T03:49:18.000Z,26.90
2018-07-11T03:51:46.202Z,26.00
2018-07-11T03:54:14.930Z,26.40
2018-07-11T03:56:43.110Z,27.20
2018-07-11T03:59:11.354Z,27.40
2018-07-11T04:01:39.547Z,29.73
2018-07-11T04:04:07.730Z,27.73
2018-07-11T04:06:35.930Z,26.37
2018-07-11T04:09:04.412Z,27.47
2018-07-11T04:11:32.583Z,28.50
2018-07-11T04:14:00.751Z,26.77
2018-07-11T04:16:28.930Z,26.10
2018-07-11T04:18:57.243Z,26.90
2018-07-11T04:21:25.422Z,27.57
2018-07-11T04:23:53.607Z,27.90
2018-07-11T04:26:21.811Z,28.20
2018-07-11T04:28:50.101Z,28.30
2018-07-11T04:31:18.235Z,30.83
2018-07-11T04:33:46.435Z,28.37
2018-07-11T04:36:14.628Z,27.90
2018-07-11T04:38:42.799Z,29.60
2018-07-11T04:41:10.971Z,29.67
2018-07-11T04:43:39.170Z,28.87
2018-07-11T04:46:07.356Z,27.73
2018-07-11T04:48:35.886Z,29.10
2018-07-11T04:51:04.258Z,30.00
2018-07-11T04:53:32.561Z,30.60
2018-07-11T04:56:03.116Z,31.33
2018-07-11T04:58:31.906Z,31.00
2018-07-11T05:01:00.599Z,31.30
2018-07-11T05:03:29.183Z,31.00
2018-07-11T05:05:57.379Z,32.90
2018-07-11T05:08:26.143Z,32.13
2018-07-11T05:10:54.411Z,32.33
2018-07-11T05:13:22.907Z,33.50
2018-07-11T05:15:51.071Z,33.20
2018-07-11T05:18:19.271Z,33.70
2018-07-11T05:20:47.723Z,34.83
2018-07-11T05:23:16.402Z,34.33
2018-07-11T05:25:44.893Z,35.87
2018-07-11T05:28:13.083Z,37.23
2018-07-11T05:30:41.266Z,38.60
2018-07-11T05:33:09.455Z,35.63
2018-07-11T05:35:37.799Z,39.17
2018-07-11T05:38:05.970Z,37.53
2018-07-11T05:40:34.154Z,38.17
2018-07-11T05:43:02.319Z,37.43
2018-07-11T05:45:30.498Z,39.60
2018-07-11T05:47:58.775Z,40.00
2018-07-11T05:50:26.942Z,40.40
2018-07-11T05:52:55.106Z,39.80
2018-07-11T05:55:23.271Z,38.40
2018-07-11T05:57:51.452Z,42.00
2018-07-11T06:00:19.814Z,41.87
2018-07-11T06:02:48.211Z,41.70
2018-07-11T06:05:16.403Z,41.77
2018-07-11T06:07:44.594Z,42.77
2018-07-11T06:10:12.782Z,40.63
2018-07-11T06:12:41.027Z,42.63
2018-07-11T06:15:09.213Z,42.90
2018-07-11T06:17:37.478Z,41.83
2018-07-11T06:20:05.742Z,46.03
2018-07-11T06:22:34.377Z,40.87
2018-07-11T06:25:02.768Z,43.40
2018-07-11T06:27:31.066Z,42.30
2018-07-11T06:29:59.391Z,42.17
2018-07-11T06:32:27.569Z,42.40
2018-07-11T06:34:55.795Z,41.40
2018-07-11T06:37:24.071Z,42.23
2018-07-11T06:39:52.511Z,43.60
2018-07-11T06:42:20.679Z,43.30
2018-07-11T06:44:48.962Z,41.97
2018-07-11T06:47:17.184Z,41.47
2018-07-11T06:49:47.011Z,39.30
2018-07-11T06:52:15.803Z,38.70
2018-07-11T06:54:44.007Z,39.53
2018-07-11T06:57:12.251Z,40.43
2018-07-11T06:59:40.427Z,42.63
2018-07-11T07:02:08.598Z,37.77
2018-07-11T07:04:36.771Z,37.77
2018-07-11T07:07:04.960Z,36.87
2018-07-11T07:09:33.138Z,39.23
2018-07-11T07:12:02.363Z,36.63
2018-07-11T07:14:30.559Z,35.63
2018-07-11T07:16:58.738Z,37.40
2018-07-11T07:19:26.951Z,38.10
2018-07-11T07:21:55.326Z,37.90
2018-07-11T07:24:23.526Z,41.23
2018-07-11T07:26:51.708Z,41.50
2018-07-11T07:29:20.087Z,40.30
2018-07-11T07:31:48.255Z,39.93
2018-07-11T07:34:16.431Z,41.23
2018-07-11T07:36:44.655Z,39.63
2018-07-11T07:39:13.054Z,40.17
2018-07-11T07:41:41.358Z,39.80
2018-07-11T07:44:10.531Z,36.97
2018-07-11T07:46:38.746Z,39.47
2018-07-11T07:49:06.931Z,38.93
2018-07-11T07:51:35.127Z,38.70
2018-07-11T07:54:03.318Z,39.47
2018-07-11T07:56:31.518Z,38.63
2018-07-11T07:58:59.731Z,42.83
2018-07-11T08:01:27.954Z,40.90
2018-07-11T08:03:56.140Z,39.77
2018-07-11T08:06:24.350Z,36.73
2018-07-11T08:08:52.530Z,35.20
2018-07-11T08:11:20.743Z,36.57
2018-07-11T08:13:48.902Z,36.20
2018-07-11T08:16:23.363Z,37.60
2018-07-11T08:18:51.531Z,37.40
2018-07-11T08:21:19.914Z,34.60
2018-07-11T08:23:59.248Z,36.37
2018-07-11T08:27:40.841Z,35.30
2018-07-11T08:30:31.339Z,37.10
2018-07-11T08:35:13.267Z,31.40
2018-07-11T08:37:50.106Z,30.90
2018-07-11T08:43:35.387Z,33.30
2018-07-11T08:46:15.246Z,32.20
2018-07-11T08:48:54.514Z,32.57
2018-07-11T08:52:04.594Z,31.10
2018-07-11T08:54:43.754Z,27.83
2018-07-11T09:01:32.989Z,26.50
2018-07-11T09:06:19.155Z,23.83
2018-07-11T09:09:10.515Z,22.03
2018-07-11T09:11:53.418Z,21.73
2018-07-11T09:14:37.055Z,21.10
2018-07-11T09:20:22.426Z,19.63
2018-07-11T09:25:14.075Z,18.67
2018-07-11T09:27:42.246Z,18.80
2018-07-11T09:30:10.426Z,18.63
2018-07-11T09:32:38.603Z,19.70
2018-07-11T09:35:06.794Z,19.17
2018-07-11T09:37:34.981Z,17.93
2018-07-11T09:40:03.155Z,20.07
2018-07-11T09:42:31.336Z,19.03
2018-07-11T09:44:59.736Z,19.47
2018-07-11T09:47:29.009Z,18.80
2018-07-11T09:49:57.622Z,18.40
2018-07-11T09:52:25.843Z,18.00
2018-07-11T09:54:54.272Z,17.40
2018-07-11T09:57:22.687Z,18.40
2018-07-11T09:59:50.890Z,18.70
2018-07-11T10:02:19.114Z,17.97
2018-07-11T10:04:47.409Z,16.63
2018-07-11T10:07:15.611Z,16.43
2018-07-11T10:09:43.794Z,16.50
2018-07-11T10:12:11.988Z,16.67
2018-07-11T10:14:40.154Z,15.67
2018-07-11T10:17:08.370Z,17.43
2018-07-11T10:19:36.566Z,16.90
2018-07-11T10:22:04.758Z,17.73
2018-07-11T10:24:32.962Z,17.63
2018-07-11T10:27:01.172Z,18.23
2018-07-11T10:29:29.351Z,17.93
2018-07-11T10:31:57.545Z,16.77
2018-07-11T10:34:25.722Z,15.80
2018-07-11T10:36:53.903Z,14.03
2018-07-11T10:39:22.082Z,15.17
2018-07-11T10:41:50.287Z,14.83
2018-07-11T10:44:18.467Z,14.10
2018-07-11T10:46:46.644Z,15.27
2018-07-11T10:49:14.842Z,13.77
2018-07-11T10:51:43.007Z,15.00
2018-07-11T10:54:11.188Z,15.73
2018-07-11T10:56:39.374Z,15.03
2018-07-11T10:59:07.558Z,16.17
2018-07-11T11:01:35.832Z,16.03
2018-07-11T11:04:03.943Z,14.60
2018-07-11T11:06:32.098Z,17.20
2018-07-11T11:09:00.308Z,18.90
2018-07-11T11:11:28.482Z,17.93
2018-07-11T11:13:56.712Z,16.00
2018-07-11T11:16:24.906Z,17.70
2018-07-11T11:18:53.083Z,17.23
2018-07-11T11:21:21.288Z,16.30
2018-07-11T11:23:49.467Z,14.77
2018-07-11T11:26:17.655Z,13.40
2018-07-11T11:28:45.840Z,13.87
2018-07-11T11:31:14.011Z,14.40
2018-07-11T11:33:42.194Z,13.97
2018-07-11T11:36:10.386Z,11.90
2018-07-11T11:38:38.563Z,12.77
2018-07-11T11:41:06.902Z,10.97
2018-07-11T11:43:35.098Z,10.90
2018-07-11T11:46:03.287Z,11.57
2018-07-11T11:48:31.479Z,11.90
2018-07-11T11:50:59.659Z,10.90
2018-07-11T11:53:27.836Z,12.63
2018-07-11T11:55:56.023Z,12.87
2018-07-11T11:58:24.190Z,12.10
2018-07-11T12:00:52.371Z,12.13
2018-07-11T12:03:20.543Z,12.60
2018-07-11T12:05:48.723Z,11.00
2018-07-11T12:08:16.918Z,11.97
2018-07-11T12:10:45.120Z,11.33
2018-07-11T12:13:13.335Z,10.80
2018-07-11T12:15:41.495Z,10.10
2018-07-11T12:18:09.666Z,9.80
2018-07-11T12:20:37.834Z,10.40
2018-07-11T12:23:06.013Z,10.70
2018-07-11T12:25:34.463Z,11.00
2018-07-11T12:28:02.651Z,11.30
2018-07-11T12:30:30.847Z,12.03
2018-07-11T12:32:59.042Z,10.60
2018-07-11T12:35:27.243Z,11.20
2018-07-11T12:37:55.452Z,11.27
2018-07-11T12:40:23.719Z,11.27
2018-07-11T12:42:51.938Z,11.53
2018-07-11T12:45:20.142Z,9.90
2018-07-11T12:47:54.006Z,9.90
2018-07-11T12:50:22.224Z,10.90
2018-07-11T12:52:50.420Z,10.43
2018-07-11T12:55:18.714Z,11.03
2018-07-11T12:57:46.924Z,10.87
2018-07-11T13:00:15.131Z,12.23
2018-07-11T13:02:43.390Z,11.20
2018-07-11T13:05:11.803Z,10.67
2018-07-11T13:07:40.087Z,9.90
2018-07-11T13:10:08.270Z,10.17
2018-07-11T13:12:36.690Z,10.67
2018-07-11T13:15:05.415Z,10.13
2018-07-11T13:17:33.591Z,10.80
2018-07-11T13:20:01.763Z,12.00
2018-07-11T13:22:30.020Z,11.17
2018-07-11T13:24:58.222Z,11.20
2018-07-11T13:27:26.588Z,11.80
2018-07-11T13:29:54.770Z,10.60
2018-07-11T13:32:26.598Z,11.67
2018-07-11T13:34:55.019Z,10.57
2018-07-11T13:37:23.259Z,12.07
2018-07-11T13:39:51.438Z,11.70
2018-07-11T13:42:19.625Z,12.03
2018-07-11T13:44:47.819Z,11.60
2018-07-11T13:47:21.351Z,11.67
2018-07-11T13:49:49.546Z,11.67
2018-07-11T13:52:17.984Z,11.97
2018-07-11T13:54:46.170Z,11.87
2018-07-11T13:57:14.363Z,10.80
2018-07-11T13:59:42.674Z,11.57
2018-07-11T14:02:10.886Z,12.00
2018-07-11T14:04:39.070Z,12.40
2018-07-11T14:07:07.540Z,12.33
2018-07-11T14:09:35.841Z,12.10
2018-07-11T14:12:04.259Z,12.10
2018-07-11T14:14:32.843Z,12.73
2018-07-11T14:17:01.220Z,12.17
2018-07-11T14:19:29.584Z,11.67
2018-07-11T14:21:57.797Z,12.00
2018-07-11T14:24:27.707Z,12.30
2018-07-11T14:26:55.965Z,11.80
2018-07-11T14:29:28.134Z,11.20
2018-07-11T14:31:57.520Z,11.90
2018-07-11T14:34:25.844Z,12.30
2018-07-11T14:36:54.082Z,12.97
2018-07-11T14:39:22.275Z,12.50
2018-07-11T14:41:50.682Z,12.97
2018-07-11T14:44:19.087Z,12.13
2018-07-11T14:46:47.273Z,13.53
2018-07-11T14:49:16.366Z,13.53
2018-07-11T14:51:44.539Z,13.33
2018-07-11T14:54:13.083Z,13.30
2018-07-11T14:56:41.379Z,14.47
2018-07-11T14:59:09.572Z,14.07
2018-07-11T15:01:37.755Z,16.10
2018-07-11T15:04:06.190Z,16.70
2018-07-11T15:06:34.548Z,18.40
2018-07-11T15:09:02.926Z,17.97
2018-07-11T15:11:30.950Z,17.93
2018-07-11T15:13:59.146Z,18.93
2018-07-11T15:16:27.834Z,20.63
2018-07-11T15:18:56.026Z,22.33
2018-07-11T15:21:24.432Z,25.17
2018-07-11T15:23:52.830Z,27.03
2018-07-11T15:26:21.189Z,26.93
2018-07-11T15:28:49.567Z,28.07
2018-07-11T15:31:17.980Z,28.57
2018-07-11T15:33:46.265Z,26.97
2018-07-11T15:36:14.946Z,27.70
2018-07-11T15:38:43.214Z,27.20
2018-07-11T15:41:11.467Z,27.20
2018-07-11T15:43:40.662Z,26.20
2018-07-11T15:46:08.847Z,27.27
2018-07-11T15:48:37.129Z,24.90
2018-07-11T15:51:05.725Z,25.63
2018-07-11T15:53:34.354Z,23.50
2018-07-11T15:56:02.592Z,25.57
2018-07-11T15:58:31.764Z,25.47
2018-07-11T16:01:04.890Z,25.70
2018-07-11T16:03:35.582Z,24.00
2018-07-11T16:06:03.799Z,22.87
2018-07-11T16:08:31.991Z,24.13
2018-07-11T16:11:03.462Z,22.43
2018-07-11T16:13:31.741Z,22.87
2018-07-11T16:15:59.955Z,20.40
2018-07-11T16:18:28.744Z,21.40
2018-07-11T16:20:56.926Z,22.13
2018-07-11T16:23:25.118Z,21.77
2018-07-11T16:25:53.326Z,23.30
2018-07-11T16:28:21.531Z,22.03
2018-07-11T16:30:49.702Z,22.90
2018-07-11T16:33:17.930Z,21.10
2018-07-11T16:35:46.134Z,22.40
2018-07-11T16:38:14.326Z,21.90
2018-07-11T16:40:42.494Z,23.60
2018-07-11T16:43:10.894Z,20.87
2018-07-11T16:45:39.083Z,22.57
2018-07-11T16:48:07.286Z,22.80
2018-07-11T16:50:36.358Z,20.80
2018-07-11T16:53:05.061Z,23.93
2018-07-11T16:55:35.318Z,22.80
2018-07-11T16:58:04.503Z,23.33
2018-07-11T17:00:34.018Z,25.20
2018-07-11T17:03:07.166Z,22.10
2018-07-11T17:05:46.555Z,23.80
2018-07-11T17:08:18.292Z,23.23
2018-07-11T17:10:46.866Z,22.80
2018-07-11T17:13:21.317Z,23.53
2018-07-11T17:15:51.019Z,27.63
2018-07-11T17:18:32.261Z,26.23
2018-07-11T17:21:06.371Z,29.00
2018-07-11T17:23:36.537Z,24.40
2018-07-11T17:26:04.734Z,27.50
2018-07-11T17:28:33.842Z,27.73
2018-07-11T17:31:02.402Z,29.70
2018-07-11T17:33:30.859Z,31.70
2018-07-11T17:35:59.103Z,31.33
2018-07-11T17:38:29.002Z,32.13
2018-07-11T17:40:57.494Z,33.40
2018-07-11T17:43:40.453Z,32.37
2018-07-11T17:46:09.600Z,32.17
2018-07-11T17:48:51.818Z,31.33
2018-07-11T17:51:30.954Z,32.07
2018-07-11T17:53:59.343Z,32.10
2018-07-11T17:56:37.407Z,31.43
2018-07-11T17:59:05.717Z,28.93
2018-07-11T18:01:37.451Z,32.77
2018-07-11T18:04:17.375Z,31.33
2018-07-11T18:06:59.868Z,28.00
2018-07-11T18:09:31.734Z,28.13
2018-07-11T18:12:09.047Z,26.60
2018-07-11T18:14:49.043Z,28.97
2018-07-11T18:19:31.610Z,28.47
2018-07-11T18:22:14.334Z,26.80
2018-07-11T18:24:49.843Z,28.47
2018-07-11T18:27:31.885Z,26.60
2018-07-11T18:32:18.892Z,28.50
2018-07-11T18:34:57.443Z,26.47
2018-07-11T18:38:02.454Z,29.20
2018-07-11T18:40:32.974Z,27.80
2018-07-11T18:43:14.261Z,28.40
2018-07-11T18:45:52.227Z,29.37
2018-07-11T18:48:28.519Z,28.63
2018-07-11T18:51:07.935Z,27.87
2018-07-11T18:53:49.576Z,26.60
2018-07-11T18:56:42.554Z,27.77
2018-07-11T18:59:22.194Z,28.57
2018-07-11T19:02:02.257Z,27.40
2018-07-11T19:04:36.310Z,26.83
2018-07-11T19:07:12.017Z,28.77
2018-07-11T19:09:51.762Z,28.50
2018-07-11T19:12:32.432Z,31.77
2018-07-11T19:15:05.298Z,27.17
2018-07-11T19:19:43.514Z,29.10
2018-07-11T19:22:48.150Z,31.97
2018-07-11T19:25:30.259Z,31.43
2018-07-11T19:28:03.858Z,33.13
2018-07-11T19:31:52.103Z,33.20
2018-07-11T19:34:27.781Z,35.07
2018-07-11T19:37:03.321Z,34.50
2018-07-11T19:40:41.128Z,35.63
2018-07-11T19:43:17.970Z,34.37
2018-07-11T19:46:00.962Z,33.63
2018-07-11T19:49:41.795Z,35.03
2018-07-11T19:52:15.067Z,36.27
2018-07-11T19:54:52.630Z,34.60
2018-07-11T19:57:20.834Z,37.97
2018-07-11T19:59:49.014Z,37.57
2018-07-11T20:02:17.207Z,39.93
2018-07-11T20:04:45.411Z,36.50
2018-07-11T20:07:13.642Z,36.00
2018-07-11T20:09:41.826Z,35.30
2018-07-11T20:12:10.035Z,35.93
2018-07-11T20:14:38.203Z,33.33
2018-07-11T20:17:12.809Z,31.17
2018-07-11T20:19:41.002Z,32.73
2018-07-11T20:22:09.200Z,33.33
2018-07-11T20:24:37.382Z,34.20
2018-07-11T20:27:05.542Z,32.27
2018-07-11T20:29:33.938Z,33.87
2018-07-11T20:32:02.142Z,33.50
2018-07-11T20:34:30.330Z,34.60
2018-07-11T20:36:58.519Z,35.23
2018-07-11T20:39:26.716Z,36.73
2018-07-11T20:41:54.921Z,35.10
2018-07-11T20:44:23.162Z,36.07
2018-07-11T20:46:51.367Z,34.10
2018-07-11T20:49:24.797Z,37.00
2018-07-11T20:51:52.922Z,37.23
2018-07-11T20:54:21.115Z,35.80
2018-07-11T20:56:49.279Z,38.20
2018-07-11T20:59:29.087Z,34.70
2018-07-11T21:03:11.546Z,35.87
2018-07-11T21:05:57.480Z,37.70
2018-07-11T21:08:42.022Z,38.60
2018-07-11T21:11:18.818Z,37.67
2018-07-11T21:16:00.716Z,40.43
2018-07-11T21:18:40.176Z,39.70
2018-07-11T21:21:08.335Z,42.93
2018-07-11T21:23:36.558Z,42.37
2018-07-11T21:26:04.751Z,45.03
2018-07-11T21:28:32.942Z,43.27
2018-07-11T21:31:01.130Z,45.43
2018-07-11T21:33:29.373Z,43.07
2018-07-11T21:35:57.538Z,45.10
2018-07-11T21:38:25.730Z,45.77
2018-07-11T21:40:53.911Z,48.13
2018-07-11T21:43:22.129Z,48.43
2018-07-11T21:45:50.317Z,48.07
2018-07-11T21:48:18.494Z,48.10
2018-07-11T21:50:46.946Z,47.60
2018-07-11T21:53:15.119Z,47.47
2018-07-11T21:55:43.340Z,47.40
2018-07-11T21:58:11.566Z,48.70
2018-07-11T22:00:40.873Z,46.07
2018-07-11T22:03:10.066Z,49.10
2018-07-11T22:05:38.350Z,49.90
2018-07-11T22:08:08.559Z,49.50
2018-07-11T22:10:38.283Z,47.17
2018-07-11T22:13:06.919Z,50.60
2018-07-11T22:15:35.315Z,52.80
2018-07-11T22:18:15.196Z,51.17
2018-07-11T22:20:42.291Z,52.23
2018-07-11T22:23:09.410Z,56.63
2018-07-11T22:25:36.510Z,58.60
2018-07-11T22:28:03.619Z,56.33
2018-07-11T22:30:30.735Z,57.43
2018-07-11T22:32:57.851Z,57.77
2018-07-11T22:35:24.950Z,57.93
2018-07-11T22:37:52.062Z,57.43
2018-07-11T22:40:19.167Z,57.37
2018-07-11T22:42:46.316Z,55.60
2018-07-11T22:45:13.383Z,57.53
2018-07-11T22:47:40.488Z,58.97
2018-07-11T22:50:07.590Z,57.30
2018-07-11T22:52:34.725Z,54.63
2018-07-11T22:55:01.811Z,53.30
2018-07-11T22:57:28.903Z,56.77
2018-07-11T22:59:56.022Z,53.43
2018-07-11T23:02:23.131Z,52.50
2018-07-11T23:04:50.231Z,52.70
2018-07-11T23:07:17.331Z,51.80
2018-07-11T23:09:44.428Z,54.30
2018-07-11T23:12:11.530Z,51.63
2018-07-11T23:14:38.639Z,50.40
2018-07-11T23:17:05.743Z,47.67
2018-07-11T23:19:32.848Z,51.73
2018-07-11T23:21:59.992Z,48.80
2018-07-11T23:24:27.095Z,48.70
2018-07-11T23:26:54.371Z,50.37
2018-07-11T23:29:21.618Z,50.47
2018-07-11T23:31:48.726Z,55.23
2018-07-11T23:34:15.831Z,51.40
2018-07-11T23:36:42.980Z,51.53
2018-07-11T23:39:11.039Z,51.70
2018-07-11T23:41:38.155Z,55.77
2018-07-11T23:44:05.259Z,52.70
2018-07-11T23:46:32.370Z,54.57
2018-07-11T23:48:59.484Z,52.60
2018-07-11T23:51:26.587Z,50.37
2018-07-11T23:53:53.695Z,54.53
2018-07-11T23:56:20.799Z,56.00
2018-07-11T23:58:48.149Z,52.60
